createdAt,value
2019-03-16T09:21:58.993Z,680
2019-03-16T09:22:01.366Z,663
2019-03-16T09:22:03.772Z,657
2019-03-16T09:22:06.127Z,656
2019-03-16T09:22:08.495Z,797
2019-03-16T09:22:10.880Z,288
2019-03-16T09:22:13.237Z,736
2019-03-16T09:22:15.655Z,747
2019-03-16T09:22:18.053Z,385
2019-03-16T09:22:20.407Z,365
2019-03-16T09:22:22.804Z,264
2019-03-16T09:22:25.164Z,459
2019-03-16T09:22:29.640Z,433
2019-03-16T09:22:30.905Z,556
2019-03-16T09:22:33.469Z,554
2019-03-16T09:22:36.230Z,547
2019-03-16T09:22:38.658Z,544
2019-03-16T09:22:40.974Z,540
2019-03-16T09:22:44.374Z,537
2019-03-16T09:22:49.365Z,537
2019-03-16T09:22:51.710Z,523
2019-03-16T09:22:55.156Z,511
2019-03-16T09:22:57.600Z,536
2019-03-16T09:23:00.000Z,525
2019-03-16T09:23:03.391Z,525
2019-03-16T09:23:05.764Z,527
2019-03-16T09:23:08.390Z,527
2019-03-16T09:23:10.805Z,542
2019-03-16T09:23:13.200Z,518
2019-03-16T09:23:15.535Z,533
2019-03-16T09:23:17.872Z,496
2019-03-16T09:23:20.249Z,565
2019-03-16T09:23:22.637Z,578
2019-03-16T09:23:24.995Z,567
2019-03-16T09:23:27.396Z,736
2019-03-16T09:23:29.731Z,267
2019-03-16T09:23:32.080Z,553
2019-03-16T09:23:34.429Z,550
2019-03-16T09:23:36.806Z,516
2019-03-16T09:23:39.142Z,495
2019-03-16T09:23:41.552Z,482
2019-03-16T09:23:43.911Z,474
2019-03-16T09:23:46.342Z,487
2019-03-16T09:23:48.779Z,440
2019-03-16T09:23:51.062Z,418
2019-03-16T09:23:53.435Z,453
2019-03-16T09:23:55.791Z,298
2019-03-16T09:23:58.121Z,358
2019-03-16T09:24:00.485Z,329
2019-03-16T09:24:02.875Z,329
2019-03-16T09:24:05.265Z,312
2019-03-16T09:24:07.655Z,318
2019-03-16T09:24:10.060Z,311
2019-03-16T09:24:12.380Z,316
2019-03-16T09:24:14.785Z,297
2019-03-16T09:24:17.164Z,319
2019-03-16T09:24:19.500Z,312
2019-03-16T09:24:21.875Z,300
2019-03-16T09:24:24.243Z,300
2019-03-16T09:24:26.594Z,314
2019-03-16T09:24:28.944Z,317
2019-03-16T09:24:31.385Z,312
2019-03-16T09:24:33.807Z,312
2019-03-16T09:24:36.181Z,322
2019-03-16T09:24:38.726Z,331
2019-03-16T09:24:41.151Z,345
2019-03-16T09:24:43.672Z,311
2019-03-16T09:24:46.085Z,472
2019-03-16T09:24:48.489Z,289
2019-03-16T09:24:50.940Z,341
2019-03-16T09:24:53.337Z,297
2019-03-16T09:24:55.740Z,328
2019-03-16T09:24:58.109Z,323
2019-03-16T09:25:00.492Z,318
2019-03-16T09:25:02.846Z,324
2019-03-16T09:25:05.360Z,292
2019-03-16T09:25:07.760Z,405
2019-03-16T09:25:10.112Z,545
2019-03-16T09:25:12.554Z,509
2019-03-16T09:25:14.910Z,474
2019-03-16T09:25:17.266Z,500
2019-03-16T09:25:19.606Z,451
2019-03-16T09:25:21.992Z,410
2019-03-16T09:25:24.360Z,346
2019-03-16T09:25:26.713Z,410
2019-03-16T09:25:29.086Z,365
2019-03-16T09:25:31.467Z,456
2019-03-16T09:25:33.821Z,281
2019-03-16T09:25:36.176Z,409
2019-03-16T09:25:38.556Z,411
2019-03-16T09:25:40.997Z,406
2019-03-16T09:25:43.390Z,380
2019-03-16T09:25:45.824Z,378
2019-03-16T09:25:48.209Z,407
2019-03-16T09:25:50.591Z,326
2019-03-16T09:25:52.968Z,306
2019-03-16T09:25:55.294Z,435
2019-03-16T09:25:57.667Z,354
2019-03-16T09:26:00.102Z,375
2019-03-16T09:26:02.455Z,373
2019-03-16T09:26:04.840Z,420
2019-03-16T09:26:07.206Z,204
2019-03-16T09:26:09.626Z,369
2019-03-16T09:26:12.026Z,268
2019-03-16T09:26:14.373Z,414
2019-03-16T09:26:16.718Z,410
2019-03-16T09:26:19.089Z,486
2019-03-16T09:26:21.442Z,521
2019-03-16T09:26:23.916Z,483
2019-03-16T09:26:26.287Z,487
2019-03-16T09:26:28.678Z,491
2019-03-16T09:26:31.049Z,492
2019-03-16T09:26:33.458Z,488
2019-03-16T09:26:35.847Z,476
2019-03-16T09:26:38.185Z,479
2019-03-16T09:26:40.571Z,472
2019-03-16T09:26:42.912Z,470
2019-03-16T09:26:45.301Z,463
2019-03-16T09:26:47.688Z,457
2019-03-16T09:26:50.064Z,454
2019-03-16T09:26:52.534Z,445
2019-03-16T09:26:54.910Z,435
2019-03-16T09:26:57.250Z,429
2019-03-16T09:26:59.597Z,445
2019-03-16T09:27:01.958Z,442
2019-03-16T09:27:04.314Z,397
2019-03-16T09:27:06.670Z,407
2019-03-16T09:27:09.036Z,409
2019-03-16T09:27:11.377Z,420
2019-03-16T09:27:13.720Z,411
2019-03-16T09:27:16.090Z,400
2019-03-16T09:27:30.471Z,405
2019-03-16T09:27:30.858Z,396
2019-03-16T09:27:31.298Z,386
2019-03-16T09:27:32.442Z,377
2019-03-16T09:27:34.781Z,371
2019-03-16T09:27:37.227Z,366
2019-03-16T09:27:39.590Z,372
2019-03-16T09:27:41.951Z,370
2019-03-16T09:27:44.283Z,371
2019-03-16T09:27:46.627Z,367
2019-03-16T09:27:48.981Z,368
2019-03-16T09:27:51.451Z,344
2019-03-16T09:27:53.816Z,336
2019-03-16T09:27:56.411Z,361
2019-03-16T09:27:58.816Z,365
2019-03-16T09:28:01.272Z,362
2019-03-16T09:28:03.641Z,352
2019-03-16T09:28:17.725Z,368
2019-03-16T09:28:18.363Z,367
2019-03-16T09:28:18.776Z,358
2019-03-16T09:28:19.237Z,364
2019-03-16T09:28:21.395Z,355
2019-03-16T09:28:23.750Z,362
2019-03-16T09:28:26.098Z,361
2019-03-16T09:28:29.808Z,368
2019-03-16T09:28:32.142Z,368
2019-03-16T09:28:34.483Z,365
2019-03-16T09:28:36.822Z,370
2019-03-16T09:28:39.187Z,382
2019-03-16T09:28:41.583Z,379
2019-03-16T09:28:43.921Z,380
2019-03-16T09:28:46.243Z,402
2019-03-16T09:28:59.522Z,272
2019-03-16T09:28:59.795Z,256
2019-03-16T09:29:00.149Z,260
2019-03-16T09:29:10.261Z,255
2019-03-16T09:29:14.652Z,281
2019-03-16T09:29:15.080Z,394
2019-03-16T09:29:15.410Z,408
2019-03-16T09:29:17.064Z,354
2019-03-16T09:29:19.444Z,408
2019-03-16T09:29:21.833Z,253
2019-03-16T09:29:24.228Z,374
2019-03-16T09:29:26.655Z,376
2019-03-16T09:29:29.056Z,376
2019-03-16T09:29:31.430Z,332
2019-03-16T09:29:33.781Z,254
2019-03-16T09:29:36.149Z,358
2019-03-16T09:29:39.630Z,257
2019-03-16T09:29:41.976Z,188
2019-03-16T09:29:44.371Z,283
2019-03-16T09:29:46.719Z,301
2019-03-16T09:29:49.072Z,299
2019-03-16T09:29:51.425Z,312
2019-03-16T09:29:53.805Z,299
2019-03-16T09:29:56.169Z,300
2019-03-16T09:29:58.533Z,379
2019-03-16T09:30:00.870Z,390
2019-03-16T09:30:03.226Z,353
2019-03-16T09:30:05.553Z,263
2019-03-16T09:30:07.939Z,348
2019-03-16T09:30:10.289Z,304
2019-03-16T09:30:12.669Z,353
2019-03-16T09:30:15.003Z,341
2019-03-16T09:30:17.391Z,351
2019-03-16T09:30:19.743Z,341
2019-03-16T09:30:22.089Z,283
2019-03-16T09:30:24.515Z,353
2019-03-16T09:30:26.860Z,357
2019-03-16T09:30:29.201Z,385
2019-03-16T09:30:31.557Z,388
2019-03-16T09:30:33.921Z,383
2019-03-16T09:30:36.265Z,390
2019-03-16T09:30:38.640Z,376
2019-03-16T09:30:41.996Z,383
2019-03-16T09:30:44.393Z,353
2019-03-16T09:30:46.780Z,380
2019-03-16T09:30:49.130Z,223
2019-03-16T09:30:51.482Z,379
2019-03-16T09:30:56.365Z,379
2019-03-16T09:30:57.201Z,382
2019-03-16T09:30:59.566Z,376
2019-03-16T09:31:01.945Z,379
2019-03-16T09:31:04.347Z,379
2019-03-16T09:31:06.674Z,384
2019-03-16T09:31:09.015Z,383
2019-03-16T09:31:11.431Z,384
2019-03-16T09:31:13.853Z,387
2019-03-16T09:31:16.235Z,241
2019-03-16T09:31:18.676Z,314
2019-03-16T09:31:21.050Z,327
2019-03-16T09:31:23.412Z,256
2019-03-16T09:31:25.746Z,264
2019-03-16T09:31:28.125Z,301
2019-03-16T09:31:30.506Z,258
2019-03-16T09:31:32.891Z,264
2019-03-16T09:31:35.265Z,398
2019-03-16T09:31:37.640Z,404
2019-03-16T09:31:40.034Z,376
2019-03-16T09:31:42.372Z,372
2019-03-16T09:31:44.770Z,315
2019-03-16T09:31:47.143Z,408
2019-03-16T09:31:49.514Z,417
2019-03-16T09:31:51.881Z,421
2019-03-16T09:31:54.203Z,412
2019-03-16T09:31:56.597Z,408
2019-03-16T09:31:58.974Z,410
2019-03-16T09:32:01.333Z,408
2019-03-16T09:32:03.770Z,415
2019-03-16T09:32:06.131Z,278
2019-03-16T09:32:08.498Z,431
2019-03-16T09:32:10.876Z,408
2019-03-16T09:32:13.295Z,412
2019-03-16T09:32:15.782Z,408
2019-03-16T09:32:18.242Z,384
2019-03-16T09:32:20.626Z,443
2019-03-16T09:32:22.998Z,452
2019-03-16T09:32:25.456Z,452
2019-03-16T09:32:27.880Z,449
2019-03-16T09:32:30.240Z,449
2019-03-16T09:32:32.604Z,449
2019-03-16T09:32:34.973Z,455
2019-03-16T09:32:37.355Z,465
2019-03-16T09:32:39.716Z,474
2019-03-16T09:32:42.046Z,480
2019-03-16T09:32:44.399Z,489
2019-03-16T09:32:46.809Z,484
2019-03-16T09:32:49.128Z,481
2019-03-16T09:32:51.487Z,478
2019-03-16T09:32:53.861Z,475
2019-03-16T09:32:56.206Z,475
2019-03-16T09:32:58.552Z,478
2019-03-16T09:33:01.035Z,481
2019-03-16T09:33:03.266Z,493
2019-03-16T09:33:24.615Z,240
2019-03-16T09:33:27.879Z,336
2019-03-16T09:33:30.174Z,353
2019-03-16T09:33:32.545Z,350
2019-03-16T09:33:34.943Z,486
2019-03-16T09:33:37.341Z,470
2019-03-16T09:33:39.715Z,388
2019-03-16T09:33:42.065Z,355
2019-03-16T09:33:44.426Z,438
2019-03-16T09:33:46.807Z,391
2019-03-16T09:33:49.141Z,407
2019-03-16T09:33:51.535Z,425
2019-03-16T09:33:54.852Z,430
2019-03-16T09:33:57.209Z,437
2019-03-16T09:34:00.541Z,442
2019-03-16T09:34:02.929Z,451
2019-03-16T09:34:05.302Z,459
2019-03-16T09:34:07.650Z,466
2019-03-16T09:34:10.036Z,476
2019-03-16T09:34:12.425Z,483
2019-03-16T09:34:14.798Z,460
2019-03-16T09:34:17.155Z,399
2019-03-16T09:34:19.509Z,439
2019-03-16T09:34:21.826Z,436
2019-03-16T09:34:24.176Z,429
2019-03-16T09:34:26.546Z,427
2019-03-16T09:34:28.897Z,417
2019-03-16T09:34:31.278Z,379
2019-03-16T09:34:33.680Z,390
2019-03-16T09:34:37.001Z,387
2019-03-16T09:34:39.346Z,385
2019-03-16T09:34:41.680Z,416
2019-03-16T09:34:44.055Z,358
2019-03-16T09:34:46.487Z,392
2019-03-16T09:34:49.193Z,387
2019-03-16T09:34:51.557Z,378
2019-03-16T09:34:53.960Z,385
2019-03-16T09:34:56.336Z,368
2019-03-16T09:34:58.726Z,376
2019-03-16T09:35:01.119Z,424
2019-03-16T09:35:03.483Z,417
2019-03-16T09:35:05.859Z,440
2019-03-16T09:35:08.249Z,452
2019-03-16T09:35:10.612Z,443
2019-03-16T09:35:12.991Z,458
2019-03-16T09:35:15.448Z,482
2019-03-16T09:35:17.764Z,445
2019-03-16T09:35:20.149Z,495
2019-03-16T09:35:22.522Z,459
2019-03-16T09:35:24.929Z,437
2019-03-16T09:35:27.271Z,434
2019-03-16T09:35:29.665Z,434
2019-03-16T09:35:32.070Z,425
2019-03-16T09:35:34.448Z,409
2019-03-16T09:35:36.831Z,430
2019-03-16T09:35:39.194Z,438
2019-03-16T09:35:41.629Z,363
2019-03-16T09:35:44.028Z,326
2019-03-16T09:35:46.369Z,349
2019-03-16T09:35:48.734Z,353
2019-03-16T09:35:51.162Z,353
2019-03-16T09:35:53.503Z,358
2019-03-16T09:35:55.863Z,358
2019-03-16T09:35:58.317Z,358
2019-03-16T09:36:00.673Z,357
2019-03-16T09:36:03.060Z,356
2019-03-16T09:36:05.405Z,351
2019-03-16T09:36:07.786Z,347
2019-03-16T09:36:10.183Z,347
2019-03-16T09:36:12.596Z,349
2019-03-16T09:36:15.000Z,346
2019-03-16T09:36:17.760Z,377
2019-03-16T09:36:20.129Z,364
2019-03-16T09:36:22.488Z,360
2019-03-16T09:36:24.846Z,415
2019-03-16T09:36:27.229Z,350
2019-03-16T09:36:29.581Z,404
2019-03-16T09:36:31.932Z,388
2019-03-16T09:36:34.336Z,387
2019-03-16T09:36:36.679Z,389
2019-03-16T09:36:39.105Z,396
2019-03-16T09:36:41.426Z,393
2019-03-16T09:36:43.782Z,416
2019-03-16T09:36:46.094Z,440
2019-03-16T09:36:48.454Z,435
2019-03-16T09:36:50.816Z,428
2019-03-16T09:36:53.215Z,435
2019-03-16T09:36:55.555Z,434
2019-03-16T09:36:57.943Z,432
2019-03-16T09:37:00.345Z,426
2019-03-16T09:37:02.711Z,420
2019-03-16T09:37:05.062Z,416
2019-03-16T09:37:07.455Z,408
2019-03-16T09:37:09.835Z,405
2019-03-16T09:37:12.184Z,409
2019-03-16T09:37:14.602Z,404
2019-03-16T09:37:16.976Z,416
2019-03-16T09:37:19.366Z,396
2019-03-16T09:37:21.798Z,394
2019-03-16T09:37:24.075Z,488
2019-03-16T09:37:26.453Z,418
2019-03-16T09:37:28.812Z,424
2019-03-16T09:37:31.190Z,427
2019-03-16T09:37:33.552Z,450
2019-03-16T09:37:35.960Z,437
2019-03-16T09:37:38.335Z,411
2019-03-16T09:37:40.804Z,418
2019-03-16T09:37:43.161Z,415
2019-03-16T09:37:45.630Z,433
2019-03-16T09:37:47.925Z,425
2019-03-16T09:37:51.291Z,437
2019-03-16T09:37:53.645Z,433
2019-03-16T09:37:56.023Z,429
2019-03-16T09:37:58.346Z,436
2019-03-16T09:38:01.699Z,436
2019-03-16T09:38:05.414Z,439
2019-03-16T09:38:07.440Z,444
2019-03-16T09:38:09.809Z,454
2019-03-16T09:38:12.147Z,473
2019-03-16T09:38:14.528Z,468
2019-03-16T09:38:16.926Z,462
2019-03-16T09:38:19.304Z,475
2019-03-16T09:38:21.703Z,473
2019-03-16T09:38:24.094Z,468
2019-03-16T09:38:26.466Z,465
2019-03-16T09:38:28.857Z,468
2019-03-16T09:38:31.265Z,499
2019-03-16T09:38:33.627Z,504
2019-03-16T09:38:35.960Z,531
2019-03-16T09:38:38.368Z,549
2019-03-16T09:38:40.694Z,552
2019-03-16T09:38:43.010Z,535
2019-03-16T09:38:45.367Z,550
2019-03-16T09:38:47.737Z,530
2019-03-16T09:38:50.120Z,511
2019-03-16T09:38:52.471Z,528
2019-03-16T09:38:54.845Z,577
2019-03-16T09:38:57.187Z,576
2019-03-16T09:38:59.594Z,584
2019-03-16T09:39:01.973Z,577
2019-03-16T09:39:04.339Z,561
2019-03-16T09:39:06.739Z,521
2019-03-16T09:39:09.158Z,480
2019-03-16T09:39:11.545Z,475
2019-03-16T09:39:13.932Z,498
2019-03-16T09:39:16.319Z,485
2019-03-16T09:39:18.698Z,466
2019-03-16T09:39:21.080Z,455
2019-03-16T09:39:23.479Z,450
2019-03-16T09:39:25.810Z,447
2019-03-16T09:39:28.234Z,446
2019-03-16T09:39:30.640Z,443
2019-03-16T09:39:32.970Z,404
2019-03-16T09:39:35.372Z,413
2019-03-16T09:39:37.757Z,407
2019-03-16T09:39:40.915Z,379
2019-03-16T09:39:43.242Z,386
2019-03-16T09:39:45.590Z,373
2019-03-16T09:39:47.974Z,372
2019-03-16T09:39:50.315Z,370
2019-03-16T09:39:52.715Z,392
2019-03-16T09:39:55.079Z,383
2019-03-16T09:39:57.436Z,386
2019-03-16T09:40:00.905Z,385
2019-03-16T09:40:03.287Z,388
2019-03-16T09:40:05.650Z,385
2019-03-16T09:40:07.986Z,386
2019-03-16T09:40:10.407Z,375
2019-03-16T09:40:12.721Z,361
2019-03-16T09:40:15.079Z,362
2019-03-16T09:40:17.448Z,344
2019-03-16T09:40:19.823Z,352
2019-03-16T09:40:22.226Z,352
2019-03-16T09:40:24.575Z,345
2019-03-16T09:40:26.966Z,328
2019-03-16T09:40:29.359Z,331
2019-03-16T09:40:31.739Z,340
2019-03-16T09:40:34.095Z,339
2019-03-16T09:40:36.470Z,355
2019-03-16T09:40:38.855Z,354
2019-03-16T09:40:41.247Z,347
2019-03-16T09:40:43.609Z,347
2019-03-16T09:40:45.982Z,339
2019-03-16T09:40:49.362Z,335
2019-03-16T09:40:51.733Z,330
2019-03-16T09:40:54.130Z,286
2019-03-16T09:40:56.508Z,321
2019-03-16T09:40:58.850Z,318
2019-03-16T09:41:01.186Z,332
2019-03-16T09:41:03.565Z,322
2019-03-16T09:41:05.952Z,312
2019-03-16T09:41:08.308Z,301
2019-03-16T09:41:10.653Z,289
2019-03-16T09:41:13.013Z,320
2019-03-16T09:41:15.377Z,324
2019-03-16T09:41:17.798Z,325
2019-03-16T09:41:20.176Z,314
2019-03-16T09:41:22.523Z,320
2019-03-16T09:41:25.905Z,313
2019-03-16T09:41:28.315Z,305
2019-03-16T09:41:30.700Z,298
2019-03-16T09:41:33.036Z,294
2019-03-16T09:41:35.443Z,276
2019-03-16T09:41:37.837Z,277
2019-03-16T09:41:40.213Z,297
2019-03-16T09:41:42.627Z,274
2019-03-16T09:41:44.937Z,272
2019-03-16T09:41:47.293Z,272
2019-03-16T09:41:49.660Z,278
2019-03-16T09:42:11.937Z,237
2019-03-16T09:42:14.300Z,270
2019-03-16T09:42:17.656Z,285
2019-03-16T09:42:20.996Z,295
2019-03-16T09:42:23.335Z,291
2019-03-16T09:42:25.714Z,336
2019-03-16T09:42:28.094Z,318
2019-03-16T09:42:30.462Z,323
2019-03-16T09:42:32.838Z,305
2019-03-16T09:42:35.195Z,324
2019-03-16T09:42:37.575Z,347
2019-03-16T09:42:39.942Z,340
2019-03-16T09:42:43.339Z,319
2019-03-16T09:42:45.715Z,302
2019-03-16T09:42:48.089Z,325
2019-03-16T09:42:50.482Z,314
2019-03-16T09:42:52.863Z,315
2019-03-16T09:42:55.223Z,309
2019-03-16T09:42:57.598Z,294
2019-03-16T09:43:00.003Z,295
2019-03-16T09:43:02.326Z,304
2019-03-16T09:43:04.680Z,341
2019-03-16T09:43:07.078Z,335
2019-03-16T09:43:09.412Z,350
2019-03-16T09:43:11.799Z,328
2019-03-16T09:43:14.215Z,306
2019-03-16T09:43:16.662Z,346
2019-03-16T09:43:19.037Z,332
2019-03-16T09:43:21.386Z,336
2019-03-16T09:43:23.788Z,329
2019-03-16T09:43:26.185Z,329
2019-03-16T09:43:28.573Z,296
2019-03-16T09:43:30.979Z,209
2019-03-16T09:43:33.342Z,304
2019-03-16T09:43:35.704Z,354
2019-03-16T09:43:38.051Z,347
2019-03-16T09:43:40.465Z,350
2019-03-16T09:43:42.831Z,349
2019-03-16T09:43:45.187Z,351
2019-03-16T09:43:47.545Z,348
2019-03-16T09:43:49.926Z,349
2019-03-16T09:43:52.295Z,365
2019-03-16T09:43:54.658Z,368
2019-03-16T09:43:57.057Z,366
2019-03-16T09:44:01.792Z,373
2019-03-16T09:44:02.925Z,370
2019-03-16T09:44:07.895Z,379
2019-03-16T09:44:10.325Z,405
2019-03-16T09:44:12.750Z,415
2019-03-16T09:44:16.118Z,425
2019-03-16T09:44:18.517Z,424
2019-03-16T09:44:20.861Z,446
2019-03-16T09:44:23.280Z,455
2019-03-16T09:44:25.675Z,452
2019-03-16T09:44:28.022Z,473
2019-03-16T09:44:30.488Z,473
2019-03-16T09:44:32.761Z,471
2019-03-16T09:44:35.128Z,465
2019-03-16T09:44:37.490Z,453
2019-03-16T09:44:39.850Z,435
2019-03-16T09:44:43.176Z,443
2019-03-16T09:44:45.563Z,435
2019-03-16T09:44:47.942Z,416
2019-03-16T09:44:50.306Z,425
2019-03-16T09:44:53.641Z,414
2019-03-16T09:44:56.013Z,405
2019-03-16T09:44:58.393Z,402
2019-03-16T09:45:00.779Z,396
2019-03-16T09:45:03.152Z,397
2019-03-16T09:45:05.507Z,383
2019-03-16T09:45:07.851Z,409
2019-03-16T09:45:10.217Z,394
2019-03-16T09:45:12.602Z,381
2019-03-16T09:45:14.974Z,395
2019-03-16T09:45:17.357Z,401
2019-03-16T09:45:19.705Z,403
2019-03-16T09:45:22.077Z,377
2019-03-16T09:45:24.445Z,401
2019-03-16T09:45:26.783Z,408
2019-03-16T09:45:29.138Z,422
2019-03-16T09:45:31.506Z,411
2019-03-16T09:45:33.848Z,426
2019-03-16T09:45:36.208Z,412
2019-03-16T09:45:38.575Z,387
2019-03-16T09:45:41.041Z,417
2019-03-16T09:45:43.451Z,408
2019-03-16T09:45:45.782Z,399
2019-03-16T09:45:48.159Z,402
2019-03-16T09:45:50.518Z,427
2019-03-16T09:45:52.875Z,404
2019-03-16T09:45:55.294Z,393
2019-03-16T09:45:57.823Z,408
2019-03-16T09:46:00.275Z,446
2019-03-16T09:46:02.758Z,395
2019-03-16T09:46:05.136Z,391
2019-03-16T09:46:07.613Z,429
2019-03-16T09:46:09.983Z,449
2019-03-16T09:46:12.336Z,418
2019-03-16T09:46:14.689Z,425
2019-03-16T09:46:17.074Z,419
2019-03-16T09:46:19.386Z,432
2019-03-16T09:46:21.786Z,439
2019-03-16T09:46:24.184Z,454
2019-03-16T09:46:26.551Z,431
2019-03-16T09:46:28.933Z,452
2019-03-16T09:46:31.286Z,460
2019-03-16T09:46:33.659Z,456
2019-03-16T09:46:36.007Z,454
2019-03-16T09:46:38.373Z,440
2019-03-16T09:46:40.788Z,447
2019-03-16T09:46:43.159Z,456
2019-03-16T09:46:46.543Z,456
2019-03-16T09:46:48.896Z,445
2019-03-16T09:46:51.293Z,438
2019-03-16T09:46:53.704Z,425
2019-03-16T09:46:56.080Z,436
2019-03-16T09:46:58.475Z,429
2019-03-16T09:47:00.905Z,395
2019-03-16T09:47:03.312Z,400
2019-03-16T09:47:05.655Z,371
2019-03-16T09:47:08.028Z,427
2019-03-16T09:47:11.450Z,423
2019-03-16T09:47:13.829Z,400
2019-03-16T09:47:16.172Z,435
2019-03-16T09:47:18.559Z,445
2019-03-16T09:47:20.917Z,419
2019-03-16T09:47:23.291Z,440
2019-03-16T09:47:25.622Z,447
2019-03-16T09:47:28.018Z,457
2019-03-16T09:47:30.389Z,462
2019-03-16T09:47:32.756Z,468
2019-03-16T09:47:35.147Z,427
2019-03-16T09:47:37.526Z,452
2019-03-16T09:47:39.891Z,473
2019-03-16T09:47:42.226Z,457
2019-03-16T09:47:44.593Z,462
2019-03-16T09:47:46.945Z,462
2019-03-16T09:47:49.314Z,443
2019-03-16T09:47:51.645Z,470
2019-03-16T09:47:54.013Z,478
2019-03-16T09:47:56.375Z,477
2019-03-16T09:47:58.755Z,481
2019-03-16T09:48:01.133Z,450
2019-03-16T09:48:03.489Z,488
2019-03-16T09:48:05.885Z,457
2019-03-16T09:48:08.215Z,491
2019-03-16T09:48:10.615Z,510
2019-03-16T09:48:12.967Z,508
2019-03-16T09:48:15.325Z,514
2019-03-16T09:48:17.668Z,508
2019-03-16T09:48:20.085Z,510
2019-03-16T09:48:22.448Z,464
2019-03-16T09:48:24.859Z,483
2019-03-16T09:48:27.195Z,485
2019-03-16T09:48:29.534Z,485
2019-03-16T09:48:31.918Z,485
2019-03-16T09:48:34.291Z,489
2019-03-16T09:48:36.675Z,485
2019-03-16T09:48:39.097Z,489
2019-03-16T09:48:41.495Z,493
2019-03-16T09:48:43.840Z,494
2019-03-16T09:48:46.210Z,475
2019-03-16T09:48:48.538Z,483
2019-03-16T09:48:51.002Z,486
2019-03-16T09:48:53.341Z,474
2019-03-16T09:48:55.772Z,488
2019-03-16T09:48:58.132Z,503
2019-03-16T09:49:00.539Z,476
2019-03-16T09:49:02.939Z,450
2019-03-16T09:49:07.865Z,470
2019-03-16T09:49:10.276Z,493
2019-03-16T09:49:12.625Z,535
2019-03-16T09:49:15.033Z,494
2019-03-16T09:49:17.505Z,494
2019-03-16T09:49:19.931Z,477
2019-03-16T09:49:22.383Z,466
2019-03-16T09:49:24.910Z,489
2019-03-16T09:49:27.357Z,439
2019-03-16T09:49:29.804Z,466
2019-03-16T09:49:32.290Z,514
2019-03-16T09:49:35.052Z,507
2019-03-16T09:49:37.591Z,506
2019-03-16T09:49:39.955Z,514
2019-03-16T09:49:42.315Z,508
2019-03-16T09:49:44.676Z,471
2019-03-16T09:49:47.433Z,503
2019-03-16T09:49:49.802Z,494
2019-03-16T09:49:52.204Z,511
2019-03-16T09:49:54.541Z,478
2019-03-16T09:49:56.964Z,481
2019-03-16T09:49:59.432Z,483
2019-03-16T09:50:01.819Z,443
2019-03-16T09:50:07.115Z,466
2019-03-16T09:50:08.628Z,385
2019-03-16T09:50:11.002Z,385
2019-03-16T09:50:13.562Z,459
2019-03-16T09:50:16.099Z,521
2019-03-16T09:50:18.475Z,531
2019-03-16T09:50:20.943Z,528
2019-03-16T09:50:23.303Z,519
2019-03-16T09:50:25.684Z,522
2019-03-16T09:50:28.096Z,524
2019-03-16T09:50:30.645Z,529
2019-03-16T09:50:33.157Z,543
2019-03-16T09:50:35.712Z,554
2019-03-16T09:50:38.193Z,569
2019-03-16T09:50:40.930Z,575
2019-03-16T09:50:43.474Z,579
2019-03-16T09:50:45.841Z,559
2019-03-16T09:50:48.244Z,461
2019-03-16T09:50:50.621Z,605
2019-03-16T09:50:52.977Z,598
2019-03-16T09:50:55.341Z,594
2019-03-16T09:50:57.719Z,573
2019-03-16T09:51:00.045Z,563
2019-03-16T09:51:02.409Z,555
2019-03-16T09:51:04.793Z,564
2019-03-16T09:51:07.182Z,559
2019-03-16T09:51:09.655Z,547
2019-03-16T09:51:12.022Z,567
2019-03-16T09:51:14.462Z,579
2019-03-16T09:51:17.183Z,588
2019-03-16T09:51:19.524Z,593
2019-03-16T09:51:21.915Z,598
2019-03-16T09:51:24.277Z,549
2019-03-16T09:51:26.716Z,557
2019-03-16T09:51:50.277Z,486
2019-03-16T09:51:52.663Z,492
2019-03-16T09:51:55.212Z,491
2019-03-16T09:51:57.573Z,487
2019-03-16T09:51:59.998Z,499
2019-03-16T09:52:02.337Z,494
2019-03-16T09:52:04.760Z,484
2019-03-16T09:52:07.150Z,482
2019-03-16T09:52:09.495Z,477
2019-03-16T09:52:12.882Z,434
2019-03-16T09:52:15.325Z,443
2019-03-16T09:52:17.704Z,414
2019-03-16T09:52:20.105Z,437
2019-03-16T09:52:22.502Z,446
2019-03-16T09:52:24.856Z,437
2019-03-16T09:52:46.047Z,422
2019-03-16T09:52:48.409Z,411
2019-03-16T09:52:50.807Z,377
2019-03-16T09:52:53.166Z,422
2019-03-16T09:52:55.587Z,440
2019-03-16T09:52:58.003Z,431
2019-03-16T09:53:00.457Z,421
2019-03-16T09:53:02.950Z,344
2019-03-16T09:53:05.371Z,416
2019-03-16T09:53:07.707Z,387
2019-03-16T09:53:10.131Z,376
2019-03-16T09:53:12.506Z,391
2019-03-16T09:53:14.864Z,359
2019-03-16T09:53:17.326Z,319
2019-03-16T09:53:19.822Z,349
2019-03-16T09:53:22.302Z,363
2019-03-16T09:53:25.802Z,345
2019-03-16T09:53:28.166Z,340
2019-03-16T09:53:30.520Z,313
2019-03-16T09:53:32.860Z,343
2019-03-16T09:53:35.222Z,318
2019-03-16T09:53:37.599Z,336
2019-03-16T09:53:39.979Z,332
2019-03-16T09:53:42.326Z,317
2019-03-16T09:53:44.680Z,317
2019-03-16T09:53:47.052Z,321
2019-03-16T09:53:49.420Z,340
2019-03-16T09:53:51.780Z,343
2019-03-16T09:53:54.141Z,321
2019-03-16T09:53:56.493Z,309
2019-03-16T09:53:58.836Z,360
2019-03-16T09:54:01.197Z,338
2019-03-16T09:54:03.579Z,358
2019-03-16T09:54:05.961Z,364
2019-03-16T09:54:08.314Z,363
2019-03-16T09:54:10.667Z,347
2019-03-16T09:54:13.052Z,341
2019-03-16T09:54:15.466Z,372
2019-03-16T09:54:17.802Z,362
2019-03-16T09:54:21.078Z,359
2019-03-16T09:54:23.453Z,363
2019-03-16T09:54:25.810Z,373
2019-03-16T09:54:29.199Z,393
2019-03-16T09:54:31.601Z,402
2019-03-16T09:54:33.985Z,408
2019-03-16T09:54:36.364Z,414
2019-03-16T09:54:38.739Z,414
2019-03-16T09:54:41.081Z,385
2019-03-16T09:54:43.488Z,428
2019-03-16T09:54:45.846Z,424
2019-03-16T09:54:48.220Z,422
2019-03-16T09:54:50.633Z,411
2019-03-16T09:54:52.996Z,424
2019-03-16T09:54:55.363Z,408
2019-03-16T09:54:57.744Z,411
2019-03-16T09:55:00.113Z,424
2019-03-16T09:55:02.475Z,418
2019-03-16T09:55:04.821Z,408
2019-03-16T09:55:07.169Z,394
2019-03-16T09:55:09.520Z,306
2019-03-16T09:55:11.881Z,388
2019-03-16T09:55:14.259Z,324
2019-03-16T09:55:16.585Z,350
2019-03-16T09:55:18.961Z,362
2019-03-16T09:55:21.306Z,376
2019-03-16T09:55:23.690Z,367
2019-03-16T09:55:26.035Z,348
2019-03-16T09:55:28.400Z,376
2019-03-16T09:55:30.778Z,380
2019-03-16T09:55:35.244Z,372
2019-03-16T09:55:37.516Z,372
2019-03-16T09:55:39.890Z,328
2019-03-16T09:55:42.243Z,340
2019-03-16T09:55:44.602Z,369
2019-03-16T09:56:08.154Z,286
2019-03-16T09:56:10.520Z,316
2019-03-16T09:56:12.899Z,322
2019-03-16T09:56:15.270Z,328
2019-03-16T09:56:17.651Z,326
2019-03-16T09:56:20.032Z,322
2019-03-16T09:56:22.390Z,325
2019-03-16T09:56:24.748Z,314
2019-03-16T09:56:27.127Z,325
2019-03-16T09:56:30.504Z,331
2019-03-16T09:56:32.850Z,332
2019-03-16T09:56:35.193Z,393
2019-03-16T09:56:37.554Z,326
2019-03-16T09:56:39.914Z,357
2019-03-16T09:56:42.238Z,366
2019-03-16T09:56:44.634Z,383
2019-03-16T09:56:47.025Z,381
2019-03-16T09:57:00.473Z,377
2019-03-16T09:57:00.867Z,349
2019-03-16T09:57:01.363Z,351
2019-03-16T09:57:02.460Z,343
2019-03-16T09:57:05.809Z,354
2019-03-16T09:57:08.165Z,347
2019-03-16T09:57:10.509Z,357
2019-03-16T09:57:12.865Z,337
2019-03-16T09:57:15.231Z,329
2019-03-16T09:57:17.608Z,338
2019-03-16T09:57:19.980Z,338
2019-03-16T09:57:22.314Z,319
2019-03-16T09:57:24.715Z,322
2019-03-16T09:57:27.031Z,321
2019-03-16T09:57:29.846Z,324
2019-03-16T09:57:32.442Z,327
2019-03-16T09:57:34.786Z,318
2019-03-16T09:57:37.137Z,314
2019-03-16T09:57:39.501Z,345
2019-03-16T09:57:41.916Z,338
2019-03-16T09:57:44.286Z,329